Time;durP1;ratioP1;P1;durP2;ratioP2;P2;SDS_P1;SDS_P2;PMS_P1;PMS_P2;Temp;Humidity;BMP_temperature;BMP_pressure;BME280_temperature;BME280_humidity;BME280_pressure;Samples;Min_cycle;Max_cycle;Signal;HPM_P1;HPM_P2
2021/10/11 00:00:43;;;;;;;17.15;9.77;;;;;;;;;;5048081;28;20176;-78
2021/10/11 00:03:09;;;;;;;17.98;8.27;;;;;;;;;;5044869;28;20184;-78
2021/10/11 00:05:42;;;;;;;13.93;8.20;;;;;;;;;;5044653;28;20771;-78
2021/10/11 00:08:47;;;;;;;20.08;9.20;;;4.10;1.00;;;;;;5056939;28;20531;-78
2021/10/11 00:11:18;;;;;;;13.82;8.40;;;;;;;;;;5054726;28;20196;-78
2021/10/11 00:13:48;;;;;;;15.15;8.90;;;;;;;;;;5048211;28;20180;-78
2021/10/11 00:16:24;;;;;;;16.50;8.77;;;;;;;;;;5056270;28;20184;-76
2021/10/11 00:18:52;;;;;;;17.83;9.23;;;;;;;;;;5043688;28;20186;-75
2021/10/11 00:21:18;;;;;;;20.45;10.32;;;;;;;;;;5059251;28;20185;-75
2021/10/11 00:23:45;;;;;;;18.88;9.40;;;;;;;;;;5051797;28;20259;-75
2021/10/11 00:26:12;;;;;;;23.77;9.68;;;;;;;;;;5038926;28;20558;-76
2021/10/11 00:28:42;;;;;;;19.90;9.80;;;;;;;;;;5061630;28;20619;-75
2021/10/11 00:31:18;;;;;;;15.38;8.95;;;;;;;;;;5036614;28;20207;-78
2021/10/11 00:33:48;;;;;;;22.17;9.75;;;;;;;;;;5047758;28;20171;-78
2021/10/11 00:36:30;;;;;;;22.83;9.32;;;;;;;;;;5045325;28;20226;-78
2021/10/11 00:39:18;;;;;;;17.25;8.50;;;3.80;1.00;;;;;;5041685;28;20238;-78
2021/10/11 00:41:54;;;;;;;17.20;9.50;;;;;;;;;;5058120;28;20208;-78
2021/10/11 00:44:23;;;;;;;21.42;10.50;;;;;;;;;;5047089;28;20194;-76
2021/10/11 00:46:50;;;;;;;19.83;10.00;;;;;;;;;;5040125;28;20190;-78
2021/10/11 00:49:16;;;;;;;20.05;9.73;;;;;;;;;;5042503;28;20191;-78
2021/10/11 00:51:48;;;;;;;15.45;8.65;;;;;;;;;;5051811;28;20220;-78
2021/10/11 00:54:15;;;;;;;18.55;8.32;;;;;;;;;;5047030;28;21266;-78
2021/10/11 00:56:49;;;;;;;18.40;9.45;;;;;;;;;;5054118;28;20511;-78
2021/10/11 00:59:18;;;;;;;20.20;9.75;;;;;;;;;;5051936;28;20190;-78
2021/10/11 01:01:48;;;;;;;15.75;9.07;;;;;;;;;;5043056;28;20183;-78
2021/10/11 01:04:24;;;;;;;15.35;8.98;;;;;;;;;;5041437;28;20267;-78
2021/10/11 01:06:51;;;;;;;18.38;8.95;;;;;;;;;;5048581;28;20210;-78
2021/10/11 01:09:18;;;;;;;15.63;8.55;;;;;;;;;;5049790;28;20652;-78
2021/10/11 01:11:54;;;;;;;19.77;10.02;;;;;;;;;;5040134;28;20267;-78
2021/10/11 01:14:25;;;;;;;15.38;9.95;;;;;;;;;;5042549;28;20167;-78
2021/10/11 01:16:51;;;;;;;17.23;9.02;;;;;;;;;;5052887;28;20251;-75
2021/10/11 01:19:17;;;;;;;17.25;8.98;;;;;;;;;;5065770;28;20180;-75
2021/10/11 01:22:00;;;;;;;17.05;9.90;;;;;;;;;;5054455;28;20173;-75
2021/10/11 01:24:36;;;;;;;18.27;9.38;;;;;;;;;;5055928;28;20198;-75
2021/10/11 01:27:03;;;;;;;15.43;8.93;;;;;;;;;;5038348;28;20183;-75
2021/10/11 01:29:29;;;;;;;19.23;9.52;;;;;;;;;;5041323;28;20185;-75
2021/10/11 01:32:00;;;;;;;13.75;8.38;;;;;;;;;;5040937;28;20654;-78
2021/10/11 01:34:36;;;;;;;22.58;9.13;;;;;;;;;;5047453;28;20183;-78
2021/10/11 01:37:12;;;;;;;14.90;9.45;;;;;;;;;;5054245;28;20170;-78
2021/10/11 01:39:38;;;;;;;17.15;9.60;;;;;;;;;;5045911;28;20202;-78
2021/10/11 01:42:06;;;;;;;17.63;9.20;;;;;;;;;;5050993;28;20180;-78
2021/10/11 01:44:38;;;;;;;14.38;8.45;;;3.30;1.00;;;;;;5066668;28;20572;-78
2021/10/11 01:47:19;;;;;;;15.20;8.98;;;;;;;;;;5051810;28;20546;-76
2021/10/11 01:49:45;;;;;;;18.08;9.45;;;;;;;;;;5043836;28;20175;-75
2021/10/11 01:52:11;;;;;;;17.15;10.20;;;;;;;;;;5055760;28;20278;-75
2021/10/11 01:54:37;;;;;;;15.43;8.40;;;;;;;;;;5061950;28;20593;-75
2021/10/11 01:57:06;;;;;;;14.70;8.95;;;;;;;;;;5054256;28;20210;-75
2021/10/11 01:59:43;;;;;;;11.98;8.50;;;;;;;;;;5051710;28;20538;-76
2021/10/11 02:02:09;;;;;;;17.00;9.20;;;;;;;;;;5061650;28;20681;-79
2021/10/11 02:04:36;;;;;;;15.90;9.05;;;;;;;;;;5048680;28;20176;-78
2021/10/11 02:07:41;;;;;;;27.48;9.85;;;3.20;1.00;;;;;;5048805;28;20210;-78
2021/10/11 02:10:08;;;;;;;12.90;8.98;;;3.10;1.00;;;;;;5043693;28;20176;-78
2021/10/11 02:12:37;;;;;;;13.65;8.95;;;;;;;;;;5040551;28;20191;-78
2021/10/11 02:18:06;;;;;;;14.52;8.73;;;;;;;;;;5047794;28;20711;-75
2021/10/11 02:20:33;;;;;;;15.07;8.73;;;;;;;;;;5041081;28;20172;-75
2021/10/11 02:22:59;;;;;;;19.17;9.95;;;;;;;;;;5041962;28;20172;-75
2021/10/11 02:25:25;;;;;;;14.98;9.10;;;;;;;;;;5038560;28;20230;-75
2021/10/11 02:27:51;;;;;;;16.83;8.80;;;;;;;;;;5062747;28;20179;-75
2021/10/11 02:30:20;;;;;;;13.23;8.15;;;;;;;;;;5068244;28;20308;-77
2021/10/11 02:32:48;;;;;;;12.52;8.40;;;;;;;;;;5035447;28;20206;-75
2021/10/11 02:35:16;;;;;;;18.33;9.20;;;;;;;;;;5058129;28;20167;-75
2021/10/11 02:37:43;;;;;;;13.93;8.50;;;3.00;1.00;;;;;;5041007;28;20226;-75
2021/10/11 02:40:10;;;;;;;20.58;10.00;;;2.90;1.00;;;;;;5043871;28;20643;-75
2021/10/11 02:43:05;;;;;;;13.50;8.52;;;;;;;;;;5059209;28;20186;-75
2021/10/11 02:45:32;;;;;;;17.95;9.15;;;;;;;;;;5041639;28;20230;-75
2021/10/11 02:47:58;;;;;;;15.63;8.95;;;;;;;;;;5056891;28;20168;-75
2021/10/11 02:50:24;;;;;;;12.90;8.37;;;;;;;;;;5048764;28;20595;-75
2021/10/11 02:53:00;;;;;;;19.23;9.02;;;;;;;;;;5050029;28;20410;-75
2021/10/11 02:55:30;;;;;;;16.88;9.25;;;;;;;;;;5063577;28;20175;-75
2021/10/11 02:58:00;;;;;;;15.05;8.52;;;;;;;;;;5077005;28;20175;-75
2021/10/11 03:00:26;;;;;;;14.80;8.95;;;;;;;;;;5067036;28;20649;-75
2021/10/11 03:02:53;;;;;;;12.82;8.80;;;;;;;;;;5072928;28;20523;-78
2021/10/11 03:05:19;;;;;;;14.10;8.43;;;;;;;;;;5057358;28;20271;-78
2021/10/11 03:08:00;;;;;;;16.52;8.90;;;;;;;;;;5063683;28;20164;-77
2021/10/11 03:10:27;;;;;;;15.70;9.20;;;;;;;;;;5060594;28;20190;-78
2021/10/11 03:12:53;;;;;;;13.00;8.10;;;;;;;;;;5055903;28;20180;-78
2021/10/11 03:15:19;;;;;;;14.52;8.30;;;;;;;;;;5047863;28;20258;-78
2021/10/11 03:17:45;;;;;;;15.63;8.20;;;;;;;;;;5055700;28;20172;-75
2021/10/11 03:20:13;;;;;;;17.65;8.57;;;;;;;;;;5040580;28;20176;-75
2021/10/11 03:22:39;;;;;;;12.80;7.65;;;;;;;;;;5053730;28;20228;-75
2021/10/11 03:25:07;;;;;;;16.00;8.65;;;;;;;;;;5058134;28;20210;-75
2021/10/11 03:27:33;;;;;;;14.75;7.95;;;;;;;;;;5049640;28;20645;-75
2021/10/11 03:30:00;;;;;;;12.23;8.18;;;;;;;;;;5060275;28;20509;-75
2021/10/11 03:32:27;;;;;;;16.02;8.43;;;;;;;;;;5047205;28;20203;-76
2021/10/11 03:34:53;;;;;;;19.25;9.25;;;2.70;1.00;;;;;;5055855;28;20171;-75
2021/10/11 03:37:19;;;;;;;15.50;8.63;;;;;;;;;;5057769;28;20176;-75
2021/10/11 03:40:00;;;;;;;17.73;8.18;;;;;;;;;;5039934;28;20184;-75
2021/10/11 03:42:26;;;;;;;17.40;9.00;;;;;;;;;;5039911;28;20165;-75
2021/10/11 03:44:54;;;;;;;14.15;8.15;;;;;;;;;;5067551;28;20537;-75
2021/10/11 03:47:42;;;;;;;15.00;8.77;;;2.80;1.00;;;;;;5055181;28;20190;-78
2021/10/11 03:50:24;;;;;;;14.27;8.60;;;;;;;;;;5043768;28;20171;-78
2021/10/11 03:53:06;;;;;;;22.17;10.02;;;;;;;;;;5038970;28;20172;-78
2021/10/11 03:55:36;;;;;;;13.93;7.93;;;;;;;;;;5052162;28;20229;-78
2021/10/11 03:58:18;;;;;;;12.00;7.93;;;;;;;;;;5049169;28;20502;-79
2021/10/11 04:01:00;;;;;;;12.48;8.00;;;;;;;;;;5061705;28;20673;-78
2021/10/11 04:03:49;;;;;;;20.73;8.68;;;;;;;;;;5042852;28;20648;-78
2021/10/11 04:06:16;;;;;;;19.55;9.00;;;;;;;;;;5041730;28;20175;-78
2021/10/11 04:08:44;;;;;;;13.55;8.13;;;;;;;;;;5039967;28;20259;-78
2021/10/11 04:13:43;;;;;;;15.77;8.50;;;;;;;;;;5047919;28;20176;-78
2021/10/11 04:16:25;;;;;;;18.30;8.88;;;;;;;;;;5049415;28;20184;-78
2021/10/11 04:19:01;;;;;;;14.00;8.30;;;2.60;1.00;;;;;;5041671;28;20176;-78
2021/10/11 04:21:27;;;;;;;17.83;9.65;;;;;;;;;;5064338;28;20175;-77
2021/10/11 04:24:00;;;;;;;14.43;9.15;;;;;;;;;;5075567;28;20641;-78
2021/10/11 04:26:30;;;;;;;16.55;9.32;;;;;;;;;;5053506;28;20188;-78
2021/10/11 04:29:00;;;;;;;20.35;9.30;;;;;;;;;;5048889;28;20176;-78
2021/10/11 04:31:30;;;;;;;23.45;10.23;;;;;;;;;;5047428;28;20196;-78
2021/10/11 04:34:00;;;;;;;15.43;9.13;;;;;;;;;;5036128;28;20534;-76
2021/10/11 04:36:30;;;;;;;21.17;9.63;;;;;;;;;;5049343;28;20179;-75
2021/10/11 04:39:00;;;;;;;17.60;9.75;;;;;;;;;;5068601;28;20641;-75
2021/10/11 04:41:30;;;;;;;15.88;9.05;;;;;;;;;;5044795;28;20188;-75
2021/10/11 04:44:00;;;;;;;14.82;9.45;;;;;;;;;;5050652;28;20661;-76
2021/10/11 04:46:27;;;;;;;17.08;8.98;;;;;;;;;;5044519;28;20172;-76
2021/10/11 04:48:53;;;;;;;14.07;8.52;;;;;;;;;;5039222;28;20172;-76
2021/10/11 04:51:24;;;;;;;13.38;8.95;;;;;;;;;;5063955;28;20195;-76
2021/10/11 04:53:51;;;;;;;15.70;9.30;;;;;;;;;;5071667;28;20162;-76
2021/10/11 04:56:17;;;;;;;12.40;8.45;;;;;;;;;;5058486;28;20183;-75
2021/10/11 04:58:48;;;;;;;15.35;8.35;;;;;;;;;;5050629;28;20168;-77
2021/10/11 05:01:16;;;;;;;14.25;8.20;;;;;;;;;;5043103;28;20211;-75
2021/10/11 05:03:42;;;;;;;14.63;8.60;;;;;;;;;;5057516;28;20179;-79
2021/10/11 05:06:24;;;;;;;12.80;7.93;;;;;;;;;;5056563;28;20302;-77
2021/10/11 05:09:01;;;;;;;12.75;7.60;;;;;;;;;;5043405;28;20183;-78
2021/10/11 05:11:29;;;;;;;15.18;8.38;;;4.10;1.00;;;;;;5047260;28;20273;-75
2021/10/11 05:14:00;;;;;;;17.05;8.98;;;;;;;;;;5045391;28;20176;-73
2021/10/11 05:16:27;;;;;;;15.60;8.50;;;;;;;;;;5043095;28;20188;-73
2021/10/11 05:18:54;;;;;;;17.40;9.80;;;;;;;;;;5044084;28;20310;-72
2021/10/11 05:21:21;;;;;;;13.18;8.05;;;;;;;;;;5052274;28;20522;-72
2021/10/11 05:23:47;;;;;;;13.90;8.17;;;;;;;;;;5050068;28;20642;-72
2021/10/11 05:26:14;;;;;;;18.30;9.20;;;;;;;;;;5043521;28;20762;-72
2021/10/11 05:28:40;;;;;;;14.93;8.93;;;;;;;;;;5053742;28;20591;-72
2021/10/11 05:31:07;;;;;;;15.43;8.57;;;;;;;;;;5050439;28;20593;-72
2021/10/11 05:33:34;;;;;;;23.58;9.63;;;;;;;;;;5046109;28;20245;-73
2021/10/11 05:36:01;;;;;;;20.45;8.98;;;4.40;1.00;;;;;;5051988;28;20252;-75
2021/10/11 05:38:27;;;;;;;13.77;9.00;;;;;;;;;;5040635;28;20199;-73
2021/10/11 05:40:55;;;;;;;15.63;8.40;;;;;;;;;;5048200;28;20245;-73
2021/10/11 05:43:21;;;;;;;20.02;10.30;;;;;;;;;;5044592;28;20446;-72
2021/10/11 05:45:48;;;;;;;25.85;8.90;;;;;;;;;;5052102;28;20221;-73
2021/10/11 05:48:14;;;;;;;14.15;8.13;;;;;;;;;;5053340;28;20255;-72
2021/10/11 05:50:40;;;;;;;17.40;8.65;;;;;;;;;;5048038;28;20262;-73
2021/10/11 05:53:06;;;;;;;13.10;8.13;;;;;;;;;;5043531;28;20571;-73
2021/10/11 05:55:32;;;;;;;12.32;7.70;;;;;;;;;;5047921;28;20226;-73
2021/10/11 05:57:59;;;;;;;15.82;7.53;;;;;;;;;;5052080;28;20250;-73
2021/10/11 06:00:25;;;;;;;16.50;8.40;;;;;;;;;;5052126;28;20183;-73
2021/10/11 06:02:51;;;;;;;13.77;8.60;;;;;;;;;;5037690;28;20547;-73
2021/10/11 06:05:17;;;;;;;13.73;7.40;;;;;;;;;;5043998;28;20778;-73
2021/10/11 06:07:43;;;;;;;16.73;8.57;;;;;;;;;;5047233;28;20326;-73
2021/10/11 06:10:09;;;;;;;13.70;8.60;;;;;;;;;;5063643;28;20201;-73
2021/10/11 06:12:35;;;;;;;16.60;8.18;;;;;;;;;;5046522;28;20548;-73
2021/10/11 06:15:01;;;;;;;12.85;8.00;;;;;;;;;;5051889;28;20247;-73
2021/10/11 06:17:31;;;;;;;16.83;7.70;;;;;;;;;;5047420;28;20199;-72
2021/10/11 06:19:57;;;;;;;16.98;8.55;;;;;;;;;;5056036;28;20183;-74
2021/10/11 06:22:23;;;;;;;14.18;7.60;;;;;;;;;;5043231;28;20171;-74
2021/10/11 06:24:51;;;;;;;18.55;8.95;;;;;;;;;;5048192;28;20249;-73
2021/10/11 06:27:17;;;;;;;21.40;10.18;;;;;;;;;;5050118;28;20505;-74
2021/10/11 06:29:45;;;;;;;19.75;9.38;;;;;;;;;;5053337;28;20176;-74
2021/10/11 06:32:12;;;;;;;19.27;9.48;;;;;;;;;;5061634;28;20194;-74
2021/10/11 06:34:39;;;;;;;21.13;9.15;;;;;;;;;;5046159;28;20187;-74
2021/10/11 06:37:06;;;;;;;11.73;8.30;;;;;;;;;;5055299;28;20175;-74
2021/10/11 06:39:33;;;;;;;18.23;9.77;;;;;;;;;;5054621;28;20191;-74
2021/10/11 06:41:59;;;;;;;16.93;8.83;;;;;;;;;;5054335;28;20410;-74
2021/10/11 06:44:28;;;;;;;18.50;11.10;;;;;;;;;;5056001;28;20410;-74
2021/10/11 06:46:54;;;;;;;25.13;10.70;;;;;;;;;;5055742;28;20435;-75
2021/10/11 06:49:21;;;;;;;12.80;7.50;;;;;;;;;;5055722;28;20409;-74
2021/10/11 06:51:47;;;;;;;16.10;7.37;;;;;;;;;;5055674;28;20450;-76
2021/10/11 06:54:13;;;;;;;15.60;7.33;;;;;;;;;;5055746;28;20406;-76
2021/10/11 06:56:42;;;;;;;15.17;8.27;;;;;;;;;;5055958;28;20414;-76
2021/10/11 06:59:09;;;;;;;13.93;7.50;;;;;;;;;;5055585;28;20413;-76
2021/10/11 07:01:35;;;;;;;15.70;8.03;;;;;;;;;;5053320;28;20426;-78
2021/10/11 07:04:01;;;;;;;14.33;7.80;;;;;;;;;;5055478;28;20410;-76
2021/10/11 07:06:29;;;;;;;10.73;6.23;;;;;;;;;;5054281;28;20424;-76
2021/10/11 07:08:55;;;;;;;15.13;6.80;;;;;;;;;;5055426;28;20417;-76
2021/10/11 07:11:21;;;;;;;13.60;6.83;;;;;;;;;;5047878;28;20442;-76
2021/10/11 07:13:48;;;;;;;13.60;7.73;;;;;;;;;;5055182;28;20410;-77
2021/10/11 07:16:14;;;;;;;15.33;7.67;;;;;;;;;;5054194;28;20491;-77
2021/10/11 07:18:40;;;;;;;18.13;7.50;;;;;;;;;;5055190;28;20410;-75
2021/10/11 07:21:07;;;;;;;17.77;8.63;;;;;;;;;;5056123;28;20414;-78
2021/10/11 07:23:34;;;;;;;19.60;8.87;;;7.20;1.00;;;;;;5055531;28;20398;-75
2021/10/11 07:26:07;;;;;;;20.07;8.03;;;;;;;;;;5055402;28;20414;-75
2021/10/11 07:28:35;;;;;;;15.70;7.43;;;7.40;1.00;;;;;;5055433;28;20410;-74
2021/10/11 07:31:01;;;;;;;14.17;8.83;;;7.60;1.00;;;;;;5055293;28;20449;-75
2021/10/11 07:33:28;;;;;;;10.90;6.93;;;;;;;;;;5061303;28;20414;-75
2021/10/11 07:35:55;;;;;;;12.90;6.83;;;;;;;;;;5061027;28;20446;-76
2021/10/11 07:38:22;;;;;;;18.23;7.70;;;7.90;1.00;;;;;;5061309;28;20434;-75
2021/10/11 07:40:50;;;;;;;14.03;7.87;;;;;;;;;;5054526;28;20444;-74
2021/10/11 07:43:16;;;;;;;18.87;9.03;;;;;;;;;;5054722;28;20503;-74
2021/10/11 07:45:42;;;;;;;16.53;9.10;;;;;;;;;;5059532;28;20412;-75
2021/10/11 07:48:08;;;;;;;17.40;8.13;;;;;;;;;;5051045;28;20738;-74
2021/10/11 07:50:35;;;;;;;17.60;9.23;;;;;;;;;;5048994;28;20410;-76
2021/10/11 07:53:01;;;;;;;16.60;8.27;;;;;;;;;;5055963;28;20425;-72
2021/10/11 07:55:27;;;;;;;18.60;7.97;;;;;;;;;;5060306;28;20410;-75
2021/10/11 07:57:54;;;;;;;11.63;6.93;;;;;;;;;;5063566;28;20414;-73
2021/10/11 08:00:25;;;;;;;23.63;8.47;;;;;;;;;;5058227;28;20502;-73
2021/10/11 08:02:51;;;;;;;17.20;8.43;;;;;;;;;;5047241;28;20781;-74
2021/10/11 08:05:17;;;;;;;16.20;7.83;;;;;;;;;;5058731;28;20421;-74
2021/10/11 08:07:43;;;;;;;17.50;8.17;;;;;;;;;;5043562;28;20438;-74
2021/10/11 08:10:11;;;;;;;19.33;8.50;;;8.80;1.00;;;;;;5063397;28;20463;-74
2021/10/11 08:12:38;;;;;;;14.90;7.90;;;8.80;1.00;;;;;;5047133;28;20553;-74
2021/10/11 08:15:06;;;;;;;21.00;8.43;;;8.80;1.00;;;;;;5053064;28;20437;-74
2021/10/11 08:17:33;;;;;;;14.47;7.87;;;8.80;1.00;;;;;;5054565;28;20453;-74
2021/10/11 08:19:59;;;;;;;17.40;9.03;;;;;;;;;;5055314;28;20482;-74
2021/10/11 08:22:26;;;;;;;16.20;7.73;;;;;;;;;;5053519;28;20604;-74
2021/10/11 08:24:52;;;;;;;15.00;7.60;;;;;;;;;;5050624;28;20498;-75
2021/10/11 08:27:19;;;;;;;19.27;10.10;;;;;;;;;;5054398;28;20417;-74
2021/10/11 08:29:52;;;;;;;19.90;9.73;;;9.00;1.00;;;;;;5054110;28;20418;-74
2021/10/11 08:32:24;;;;;;;21.50;10.10;;;9.00;1.00;;;;;;5052779;28;20481;-74
2021/10/11 08:34:51;;;;;;;22.77;10.20;;;9.00;1.00;;;;;;5054211;28;20410;-74
2021/10/11 08:37:18;;;;;;;21.13;8.90;;;;;;;;;;5067625;28;20432;-74
2021/10/11 08:39:44;;;;;;;19.33;9.30;;;;;;;;;;5067675;28;20461;-74
2021/10/11 08:42:13;;;;;;;20.43;9.37;;;;;;;;;;5066234;28;20908;-74
2021/10/11 08:44:39;;;;;;;25.43;10.90;;;;;;;;;;5049961;28;20424;-74
2021/10/11 08:47:06;;;;;;;30.63;9.90;;;;;;;;;;5044894;28;20453;-74
2021/10/11 08:49:36;;;;;;;22.80;10.50;;;9.10;1.00;;;;;;5053889;28;20452;-74
2021/10/11 08:52:03;;;;;;;20.93;9.43;;;9.20;1.00;;;;;;5054036;28;20454;-74
2021/10/11 08:54:30;;;;;;;19.60;9.80;;;;;;;;;;5055541;28;20827;-74
2021/10/11 08:56:56;;;;;;;18.63;10.30;;;;;;;;;;5062632;28;20915;-74
2021/10/11 08:59:28;;;;;;;23.83;11.20;;;9.50;1.00;;;;;;5063370;28;20406;-74
2021/10/11 09:02:13;;;;;;;25.23;11.47;;;9.60;1.00;;;;;;5058441;28;20759;-74
2021/10/11 09:04:49;;;;;;;24.40;11.37;;;;;;;;;;5048229;28;20445;-74
2021/10/11 09:07:24;;;;;;;26.50;11.93;;;9.70;1.00;;;;;;5060714;28;20418;-74
2021/10/11 09:09:52;;;;;;;28.33;12.60;;;9.80;1.00;;;;;;5049439;28;20436;-74
2021/10/11 09:12:20;;;;;;;22.97;11.47;;;;;;;;;;5045365;28;20462;-74
2021/10/11 09:14:53;;;;;;;23.83;11.47;;;;;;;;;;5051036;28;20440;-74
2021/10/11 09:17:22;;;;;;;28.20;11.97;;;;;;;;;;5044846;28;20487;-74
2021/10/11 09:19:57;;;;;;;24.53;12.27;;;;;;;;;;5051011;28;20440;-74
2021/10/11 09:22:36;;;;;;;22.00;11.50;;;9.90;1.00;;;;;;5046153;28;20413;-74
2021/10/11 09:25:04;;;;;;;26.10;12.10;;;9.90;1.00;;;;;;5049168;28;20461;-74
2021/10/11 09:27:46;;;;;;;30.30;11.43;;;10.00;1.00;;;;;;5052769;28;20425;-76
2021/10/11 09:30:14;;;;;;;24.53;12.70;;;10.20;1.00;;;;;;5038525;28;20434;-76
2021/10/11 09:32:45;;;;;;;31.50;12.67;;;;;;;;;;5043804;28;20508;-75
2021/10/11 09:35:17;;;;;;;22.87;12.07;;;;;;;;;;5052331;28;20426;-75
2021/10/11 09:37:50;;;;;;;20.73;11.43;;;10.60;1.00;;;;;;5040344;28;20489;-74
2021/10/11 09:40:19;;;;;;;23.10;11.97;;;10.60;1.00;;;;;;5043553;28;20826;-74
2021/10/11 09:42:47;;;;;;;26.80;13.20;;;;;;;;;;5051880;28;20426;-74
2021/10/11 09:45:13;;;;;;;20.57;10.20;;;;;;;;;;5032031;28;20425;-74
2021/10/11 09:47:44;;;;;;;27.90;12.80;;;10.80;1.00;;;;;;5050461;28;20421;-75
2021/10/11 09:50:17;;;;;;;24.80;12.00;;;;;;;;;;5040818;28;20814;-75
2021/10/11 09:52:45;;;;;;;24.53;12.20;;;;;;;;;;5032875;28;20970;-75
2021/10/11 09:55:12;;;;;;;26.10;11.23;;;11.30;1.00;;;;;;5032922;28;20477;-74
2021/10/11 09:57:38;;;;;;;23.47;11.67;;;11.40;1.00;;;;;;5052158;28;20513;-75
2021/10/11 10:00:08;;;;;;;23.03;10.90;;;11.40;1.00;;;;;;5051661;28;20448;-75
2021/10/11 10:02:42;;;;;;;28.87;12.90;;;11.50;1.00;;;;;;5051556;28;20430;-75
2021/10/11 10:05:15;;;;;;;23.43;11.80;;;11.60;1.00;;;;;;5048172;28;20517;-75
2021/10/11 10:07:46;;;;;;;31.40;12.90;;;11.70;1.00;;;;;;5052654;28;20559;-75
2021/10/11 10:10:17;;;;;;;25.40;12.60;;;11.90;1.00;;;;;;5051062;28;20419;-74
2021/10/11 10:12:50;;;;;;;28.57;14.60;;;;;;;;;;5052946;28;20535;-75
2021/10/11 10:15:35;;;;;;;28.47;13.77;;;12.20;1.00;;;;;;5037819;28;20421;-75
2021/10/11 10:18:10;;;;;;;33.47;14.50;;;12.10;1.00;;;;;;5051318;28;20433;-75
2021/10/11 10:20:37;;;;;;;27.87;14.03;;;;;;;;;;5052326;28;20424;-74
2021/10/11 10:23:06;;;;;;;34.10;14.87;;;;;;;;;;5052749;28;20483;-75
2021/10/11 10:25:32;;;;;;;24.27;12.73;;;;;;;;;;5049351;28;20424;-74
2021/10/11 10:28:12;;;;;;;25.53;13.00;;;12.30;1.00;;;;;;5051815;28;20495;-75
2021/10/11 10:30:40;;;;;;;36.80;14.43;;;12.30;1.00;;;;;;5052418;28;20845;-74
2021/10/11 10:33:08;;;;;;;29.77;12.90;;;;;;;;;;5033183;28;20423;-75
2021/10/11 10:35:44;;;;;;;33.53;14.50;;;12.20;1.00;;;;;;5032341;28;20909;-75
2021/10/11 10:38:20;;;;;;;24.50;13.50;;;12.20;1.00;;;;;;5039706;28;20441;-75
2021/10/11 10:40:47;;;;;;;24.90;13.67;;;;;;;;;;5050574;28;20430;-75
2021/10/11 10:43:16;;;;;;;29.23;14.30;;;;;;;;;;5062675;28;20406;-75
2021/10/11 10:45:45;;;;;;;29.70;14.03;;;12.10;1.00;;;;;;5065753;28;20414;-74
2021/10/11 10:48:23;;;;;;;28.63;14.37;;;12.10;1.00;;;;;;5041148;28;20452;-74
2021/10/11 10:50:56;;;;;;;32.37;15.17;;;12.20;1.00;;;;;;5051412;28;20768;-74
2021/10/11 10:53:23;;;;;;;30.20;14.57;;;;;;;;;;5052261;28;20429;-74
2021/10/11 10:55:51;;;;;;;35.07;15.83;;;12.50;1.00;;;;;;5052542;28;20421;-75
2021/10/11 10:58:17;;;;;;;31.10;14.00;;;;;;;;;;5047335;28;20431;-74
2021/10/11 11:00:45;;;;;;;27.73;13.97;;;12.60;1.00;;;;;;5047027;28;20432;-74
2021/10/11 11:03:13;;;;;;;31.10;14.13;;;12.70;1.00;;;;;;5038016;28;20421;-75
2021/10/11 11:05:42;;;;;;;31.63;15.27;;;12.60;1.00;;;;;;5051298;28;20453;-74
2021/10/11 11:08:11;;;;;;;24.40;12.97;;;12.70;1.00;;;;;;5050726;28;20472;-75
2021/10/11 11:10:40;;;;;;;36.33;15.57;;;12.80;1.00;;;;;;5034231;28;20426;-75
2021/10/11 11:13:16;;;;;;;29.57;15.53;;;12.90;1.00;;;;;;5052637;28;20414;-74
2021/10/11 11:15:54;;;;;;;37.43;14.50;;;12.90;1.00;;;;;;5051217;28;20508;-75
2021/10/11 11:18:24;;;;;;;33.20;15.73;;;13.00;1.00;;;;;;5054390;28;20417;-75
2021/10/11 11:20:54;;;;;;;32.17;15.03;;;13.00;1.00;;;;;;5046246;28;20405;-75
2021/10/11 11:23:34;;;;;;;29.13;14.87;;;13.10;1.00;;;;;;5032724;28;20518;-74
2021/10/11 11:26:05;;;;;;;27.03;14.23;;;13.20;1.00;;;;;;5001543;28;20522;-75
2021/10/11 11:28:32;;;;;;;28.93;14.77;;;13.30;1.00;;;;;;5006538;28;20427;-74
2021/10/11 11:31:10;;;;;;;32.37;14.30;;;13.40;1.00;;;;;;5025834;28;20466;-74
2021/10/11 11:33:53;;;;;;;31.97;16.60;;;;;;;;;;5014782;28;20422;-75
2021/10/11 11:36:22;;;;;;;27.97;14.70;;;13.20;1.00;;;;;;5013371;28;20419;-75
2021/10/11 11:38:48;;;;;;;26.37;14.00;;;13.20;1.00;;;;;;5013256;28;20493;-74
2021/10/11 11:41:14;;;;;;;32.80;15.10;;;;;;;;;;5017883;28;20471;-75
2021/10/11 11:43:42;;;;;;;32.93;15.13;;;13.00;1.00;;;;;;5019566;28;20976;-75
2021/10/11 11:46:09;;;;;;;30.27;13.90;;;12.90;1.00;;;;;;5013372;28;20415;-76
2021/10/11 11:48:42;;;;;;;30.17;14.67;;;12.90;1.00;;;;;;5026850;28;20546;-75
2021/10/11 11:51:10;;;;;;;29.43;15.73;;;12.90;1.00;;;;;;5032913;28;20562;-75
2021/10/11 11:53:38;;;;;;;26.83;14.03;;;13.00;1.00;;;;;;5025174;28;20435;-75
2021/10/11 11:56:06;;;;;;;24.77;13.47;;;12.90;1.00;;;;;;5022150;28;20420;-75
2021/10/11 11:58:38;;;;;;;31.73;14.67;;;12.90;1.00;;;;;;5007465;28;20855;-75
2021/10/11 12:01:20;;;;;;;30.60;14.60;;;13.00;1.00;;;;;;5018608;28;20429;-75
2021/10/11 12:03:57;;;;;;;27.50;14.90;;;13.00;1.00;;;;;;5040617;28;20867;-75
2021/10/11 12:06:28;;;;;;;26.07;15.50;;;;;;;;;;5033878;28;20755;-75
2021/10/11 12:08:54;;;;;;;27.30;14.47;;;;;;;;;;5047073;28;20421;-75
2021/10/11 12:11:21;;;;;;;25.97;14.37;;;;;;;;;;5049877;28;20457;-74
2021/10/11 12:13:47;;;;;;;30.03;15.20;;;;;;;;;;5054972;28;20438;-75
2021/10/11 12:16:25;;;;;;;29.60;15.33;;;;;;;;;;5044204;28;20430;-75
2021/10/11 12:19:16;;;;;;;34.10;14.73;;;;;;;;;;5053926;28;20777;-75
2021/10/11 12:21:43;;;;;;;34.27;15.07;;;;;;;;;;5053158;28;20462;-74
2021/10/11 12:24:13;;;;;;;30.27;14.90;;;;;;;;;;5052509;28;20839;-76
2021/10/11 12:26:55;;;;;;;32.20;14.73;;;14.10;1.00;;;;;;5053153;28;20497;-75
2021/10/11 12:29:24;;;;;;;27.87;14.20;;;14.00;1.00;;;;;;5045434;28;20815;-75
2021/10/11 12:32:08;;;;;;;24.53;14.80;;;13.90;1.00;;;;;;5059660;28;20410;-75
2021/10/11 12:34:45;;;;;;;25.23;14.70;;;13.70;1.00;;;;;;5053390;28;20513;-75
2021/10/11 12:37:20;;;;;;;37.67;16.33;;;13.80;1.00;;;;;;5035276;28;20411;-75
2021/10/11 12:39:50;;;;;;;32.80;14.40;;;13.80;1.00;;;;;;5046766;28;20541;-76
2021/10/11 12:42:18;;;;;;;30.20;13.37;;;14.00;1.00;;;;;;5046523;28;20620;-75
2021/10/11 12:44:49;;;;;;;25.00;14.80;;;14.10;1.00;;;;;;5039313;28;20430;-75
2021/10/11 12:47:27;;;;;;;28.73;14.27;;;14.10;1.00;;;;;;5047874;28;20410;-75
2021/10/11 12:50:12;;;;;;;25.17;13.97;;;14.20;1.00;;;;;;5050687;28;20414;-75
2021/10/11 12:55:26;;;;;;;30.70;14.00;;;14.20;1.00;;;;;;5054586;28;20366;-75
2021/10/11 12:58:06;;;;;;;29.90;14.27;;;;;;;;;;5053829;28;20759;-74
2021/10/11 13:00:32;;;;;;;27.13;14.33;;;;;;;;;;5051278;28;20433;-74
2021/10/11 13:02:59;;;;;;;29.87;15.07;;;;;;;;;;5052278;28;20776;-75
2021/10/11 13:05:31;;;;;;;41.77;16.97;;;14.30;1.00;;;;;;5053004;28;20947;-76
2021/10/11 13:07:58;;;;;;;29.90;14.60;;;14.10;1.00;;;;;;5042135;28;20385;-75
2021/10/11 13:10:24;;;;;;;27.47;14.50;;;;;;;;;;5053771;28;20410;-77
2021/10/11 13:12:55;;;;;;;23.20;13.27;;;14.30;1.00;;;;;;5040040;28;20445;-75
2021/10/11 13:15:21;;;;;;;25.93;14.77;;;;;;;;;;5053847;28;21074;-75
2021/10/11 13:17:47;;;;;;;26.83;13.87;;;;;;;;;;5053490;28;20381;-75
2021/10/11 13:20:13;;;;;;;28.37;13.80;;;;;;;;;;5038958;28;20828;-75
2021/10/11 13:22:41;;;;;;;27.67;14.10;;;14.10;1.00;;;;;;5033502;28;20451;-76
2021/10/11 13:25:08;;;;;;;27.60;13.20;;;14.10;1.00;;;;;;5033583;28;20800;-76
2021/10/11 13:27:35;;;;;;;26.70;13.70;;;14.20;1.00;;;;;;5053372;28;20410;-75
2021/10/11 13:33:38;;;;;;;27.50;13.60;;;14.30;1.00;;;;;;5053244;28;20446;-76
2021/10/11 14:27:49;;;;;;;29.53;12.93;;;;;;;;;;5042458;28;20361;-76
2021/10/11 16:00:58;;;;;;;19.63;11.60;;;;;;;;;;5055479;28;20728;-75
2021/10/11 16:06:01;;;;;;;27.03;12.60;;;;;;;;;;5040975;28;20396;-75
2021/10/11 16:08:32;;;;;;;23.90;10.83;;;;;;;;;;5054888;28;20788;-75
2021/10/11 16:10:58;;;;;;;28.33;11.83;;;;;;;;;;5043229;28;20505;-76
2021/10/11 16:13:24;;;;;;;32.77;13.67;;;;;;;;;;5046149;28;20779;-75
2021/10/11 16:15:51;;;;;;;26.43;13.43;;;;;;;;;;5051710;28;20469;-75
2021/10/11 16:18:30;;;;;;;25.50;11.93;;;;;;;;;;5052099;28;20797;-76
2021/10/11 16:21:08;;;;;;;20.70;11.00;;;13.00;1.00;;;;;;5035255;28;20422;-75
2021/10/11 16:23:37;;;;;;;26.60;12.27;;;;;;;;;;5072458;28;20512;-74
2021/10/11 16:26:03;;;;;;;24.27;12.03;;;12.60;1.00;;;;;;5043062;28;20779;-75
2021/10/11 16:28:32;;;;;;;25.73;11.17;;;;;;;;;;5055272;28;20795;-73
2021/10/11 16:30:58;;;;;;;22.77;11.40;;;;;;;;;;5055499;28;20756;-73
2021/10/11 16:33:25;;;;;;;39.67;13.00;;;;;;;;;;5057059;28;20406;-73
2021/10/11 16:35:51;;;;;;;38.07;13.37;;;;;;;;;;5047942;28;20399;-73
2021/10/11 16:38:17;;;;;;;25.77;11.67;;;11.80;1.00;;;;;;5046959;28;20438;-73
2021/10/11 16:40:43;;;;;;;26.13;12.30;;;;;;;;;;5053586;28;21018;-73
2021/10/11 16:43:09;;;;;;;25.40;12.27;;;;;;;;;;5041912;28;20188;-73
2021/10/11 16:45:35;;;;;;;23.63;11.10;;;;;;;;;;5049937;28;20426;-73